createdAt,value
2022-08-26T03:02:03.134Z,6.30
2022-08-26T03:04:31.102Z,6.50
2022-08-26T03:07:01.073Z,6.68
2022-08-26T03:09:28.553Z,6.68
2022-08-26T03:11:55.789Z,6.38
2022-08-26T03:14:25.677Z,10.05
2022-08-26T03:16:55.104Z,6.80
2022-08-26T03:19:24.773Z,6.78
2022-08-26T03:21:53.654Z,7.18
2022-08-26T03:24:26.126Z,7.53
2022-08-26T03:26:53.358Z,7.20
2022-08-26T03:29:40.108Z,6.20
2022-08-26T03:32:07.776Z,6.20
2022-08-26T03:34:35.302Z,6.88
2022-08-26T03:37:02.690Z,6.53
2022-08-26T03:39:31.689Z,6.72
2022-08-26T03:41:59.924Z,6.80
2022-08-26T03:44:27.242Z,7.32
2022-08-26T03:46:55.018Z,6.55
2022-08-26T03:49:22.606Z,6.45
2022-08-26T03:51:50.439Z,7.03
2022-08-26T03:54:18.240Z,7.03
2022-08-26T03:56:46.560Z,7.40
2022-08-26T03:59:14.026Z,6.68
2022-08-26T04:01:41.775Z,6.82
2022-08-26T04:04:09.245Z,6.75
2022-08-26T04:06:44.919Z,7.28
2022-08-26T04:09:19.543Z,6.90
2022-08-26T04:11:50.623Z,7.00
2022-08-26T04:14:21.047Z,6.78
2022-08-26T04:16:48.563Z,6.82
2022-08-26T04:19:16.729Z,6.78
2022-08-26T04:21:45.153Z,6.63
2022-08-26T04:24:15.580Z,6.95
2022-08-26T04:26:43.878Z,6.40
2022-08-26T04:29:14.300Z,6.68
2022-08-26T04:31:41.682Z,5.90
2022-08-26T04:34:10.995Z,6.47
2022-08-26T04:36:39.129Z,6.72
2022-08-26T04:39:07.041Z,6.72
2022-08-26T04:41:34.315Z,6.40
2022-08-26T04:44:03.651Z,6.75
2022-08-26T04:46:30.960Z,6.65
2022-08-26T04:48:59.131Z,8.15
2022-08-26T04:51:29.379Z,7.10
2022-08-26T04:53:58.195Z,6.32
2022-08-26T04:56:27.966Z,6.68
2022-08-26T04:58:56.457Z,7.05
2022-08-26T05:01:24.448Z,6.93
2022-08-26T05:03:52.623Z,6.95
2022-08-26T05:06:20.556Z,6.65
2022-08-26T05:08:49.274Z,7.50
2022-08-26T05:11:16.624Z,7.57
2022-08-26T05:13:43.863Z,6.95
2022-08-26T05:16:13.716Z,6.78
2022-08-26T05:18:43.514Z,6.60
2022-08-26T05:21:21.521Z,7.30
2022-08-26T05:23:51.316Z,6.90
2022-08-26T05:26:22.886Z,6.82
2022-08-26T05:28:51.712Z,7.43
2022-08-26T05:31:28.361Z,7.25
2022-08-26T05:33:57.588Z,6.53
2022-08-26T05:36:28.212Z,7.28
2022-08-26T05:38:56.576Z,6.82
2022-08-26T05:41:34.614Z,6.80
2022-08-26T05:44:07.298Z,6.32
2022-08-26T05:46:35.912Z,6.97
2022-08-26T05:49:04.519Z,6.90
2022-08-26T05:51:33.465Z,6.90
2022-08-26T05:54:04.047Z,6.70
2022-08-26T05:56:31.500Z,6.20
2022-08-26T05:59:01.461Z,6.55
2022-08-26T06:01:29.993Z,6.05
2022-08-26T06:04:01.620Z,5.05
2022-08-26T06:06:32.315Z,6.30
2022-08-26T06:09:02.037Z,5.80
2022-08-26T06:11:32.443Z,5.88
2022-08-26T06:14:03.894Z,5.30
2022-08-26T06:16:34.857Z,5.25
2022-08-26T06:19:10.427Z,5.25
2022-08-26T06:21:40.282Z,5.63
2022-08-26T06:24:28.848Z,5.03
2022-08-26T06:26:59.012Z,4.97
2022-08-26T06:29:27.025Z,4.95
2022-08-26T06:31:56.435Z,4.40
2022-08-26T06:34:29.950Z,4.65
2022-08-26T06:37:02.367Z,3.90
2022-08-26T06:39:31.066Z,7.00
2022-08-26T06:42:02.947Z,4.65
2022-08-26T06:44:30.863Z,4.40
2022-08-26T06:46:59.696Z,4.18
2022-08-26T06:49:27.793Z,4.57
2022-08-26T06:51:59.576Z,4.25
2022-08-26T06:54:30.317Z,4.25
2022-08-26T06:56:57.906Z,4.35
2022-08-26T06:59:25.411Z,4.50
2022-08-26T07:01:53.331Z,4.30
2022-08-26T07:04:23.103Z,3.90
2022-08-26T07:06:53.400Z,4.50
2022-08-26T07:09:23.431Z,5.70
2022-08-26T07:11:51.368Z,4.57
2022-08-26T07:14:21.167Z,4.40
2022-08-26T07:16:50.383Z,4.55
2022-08-26T07:19:29.939Z,4.05
2022-08-26T07:22:04.617Z,3.85
2022-08-26T07:24:38.376Z,4.22
2022-08-26T07:27:08.645Z,4.43
2022-08-26T07:29:37.586Z,4.90
2022-08-26T07:32:05.599Z,3.75
2022-08-26T07:34:33.501Z,3.60
2022-08-26T07:37:01.381Z,3.78
2022-08-26T07:39:31.578Z,3.83
2022-08-26T07:42:07.583Z,4.00
2022-08-26T07:44:37.441Z,3.33
2022-08-26T07:47:24.071Z,3.20
2022-08-26T07:49:57.617Z,4.00
2022-08-26T07:52:27.529Z,3.67
2022-08-26T07:55:01.468Z,3.67
2022-08-26T07:57:30.422Z,4.60
2022-08-26T07:59:58.614Z,4.43
2022-08-26T08:02:29.498Z,4.30
2022-08-26T08:04:58.326Z,4.90
2022-08-26T08:07:44.177Z,4.90
2022-08-26T08:10:19.138Z,4.50
2022-08-26T08:12:49.039Z,4.63
2022-08-26T08:15:21.131Z,4.70
2022-08-26T08:17:50.580Z,4.63
2022-08-26T08:20:20.817Z,4.32
2022-08-26T08:22:48.752Z,4.50
2022-08-26T08:25:16.844Z,4.22
2022-08-26T08:27:48.731Z,3.60
2022-08-26T08:30:19.380Z,3.30
2022-08-26T08:32:50.534Z,3.90
2022-08-26T08:35:21.092Z,3.60
2022-08-26T08:37:50.873Z,3.10
2022-08-26T08:40:18.287Z,3.20
2022-08-26T08:43:03.949Z,3.30
2022-08-26T08:45:47.261Z,3.47
2022-08-26T08:48:19.684Z,2.83
2022-08-26T08:50:52.405Z,3.50
2022-08-26T08:53:42.125Z,2.75
2022-08-26T08:56:35.248Z,2.97
2022-08-26T08:59:24.214Z,3.20
2022-08-26T09:01:55.519Z,3.38
2022-08-26T09:04:25.507Z,3.13
2022-08-26T09:09:51.873Z,3.25
2022-08-26T09:12:30.325Z,3.30
2022-08-26T09:15:17.637Z,3.50
2022-08-26T09:18:26.837Z,2.78
2022-08-26T09:21:07.781Z,2.83
2022-08-26T09:23:37.553Z,3.28
2022-08-26T09:26:25.926Z,3.08
2022-08-26T09:28:59.575Z,2.75
2022-08-26T09:31:27.528Z,3.15
2022-08-26T09:34:12.435Z,3.20
2022-08-26T09:36:55.677Z,3.20
2022-08-26T09:39:28.262Z,2.80
2022-08-26T09:42:11.710Z,3.80
2022-08-26T09:44:59.512Z,3.13
2022-08-26T09:47:32.564Z,3.38
2022-08-26T09:50:19.435Z,3.67
2022-08-26T09:53:03.031Z,3.50
2022-08-26T09:55:38.267Z,3.30
2022-08-26T09:58:08.928Z,3.20
2022-08-26T10:00:40.400Z,3.50
2022-08-26T10:03:15.550Z,3.33
2022-08-26T10:06:01.042Z,3.17
2022-08-26T10:08:33.030Z,3.55
2022-08-26T10:11:04.478Z,3.80
2022-08-26T10:13:33.593Z,3.70
2022-08-26T10:16:19.286Z,3.60
2022-08-26T10:19:00.795Z,3.83
2022-08-26T10:21:31.332Z,3.65
2022-08-26T10:24:01.973Z,3.60
2022-08-26T10:27:02.347Z,3.78
2022-08-26T10:29:40.843Z,3.40
2022-08-26T10:32:21.812Z,3.38
2022-08-26T10:34:49.072Z,4.00
2022-08-26T10:37:22.782Z,4.10
2022-08-26T10:40:02.922Z,3.72
2022-08-26T10:42:41.885Z,3.83
2022-08-26T10:45:16.652Z,3.22
2022-08-26T10:47:50.568Z,3.78
2022-08-26T10:50:19.830Z,3.95
2022-08-26T10:53:26.389Z,3.45
2022-08-26T10:56:38.941Z,3.97
2022-08-26T10:59:12.758Z,3.95
2022-08-26T11:01:54.880Z,3.97
2022-08-26T11:04:35.013Z,3.50
2022-08-26T11:07:41.303Z,3.50
2022-08-26T11:10:20.695Z,3.88
2022-08-26T11:12:52.209Z,3.67
2022-08-26T11:15:24.558Z,3.72
2022-08-26T11:17:52.301Z,4.07
2022-08-26T11:20:42.136Z,3.70
2022-08-26T11:23:12.586Z,3.70
2022-08-26T11:26:05.320Z,4.50
2022-08-26T11:28:36.864Z,4.43
2022-08-26T11:31:08.636Z,4.32
2022-08-26T11:34:12.930Z,3.80
2022-08-26T11:36:42.103Z,4.13
2022-08-26T11:39:21.134Z,4.22
2022-08-26T11:41:52.722Z,3.50
2022-08-26T11:44:23.504Z,3.83
2022-08-26T11:47:00.157Z,4.00
2022-08-26T11:49:31.861Z,4.10
2022-08-26T11:52:11.266Z,4.13
2022-08-26T11:54:39.125Z,3.80
2022-08-26T11:57:12.338Z,4.40
2022-08-26T11:59:42.279Z,4.00
2022-08-26T12:02:16.794Z,4.10
2022-08-26T12:04:49.057Z,4.13
2022-08-26T12:07:18.501Z,4.10
2022-08-26T12:10:04.067Z,4.28
2022-08-26T12:12:38.573Z,3.60
2022-08-26T12:15:10.083Z,3.38
2022-08-26T12:17:39.360Z,3.55
2022-08-26T12:20:30.399Z,3.92
2022-08-26T12:22:59.078Z,3.40
2022-08-26T12:25:27.996Z,3.13
2022-08-26T12:28:05.431Z,3.55
2022-08-26T12:30:32.735Z,3.28
2022-08-26T12:33:15.756Z,2.75
2022-08-26T12:35:56.631Z,3.28
2022-08-26T12:38:25.896Z,2.80
2022-08-26T12:40:54.634Z,2.95
2022-08-26T12:43:45.230Z,3.30
2022-08-26T12:46:17.374Z,2.63
2022-08-26T12:48:49.585Z,2.83
2022-08-26T12:51:26.038Z,3.30
2022-08-26T12:53:54.040Z,3.25
2022-08-26T12:56:38.937Z,2.72
2022-08-26T12:59:19.798Z,3.20
2022-08-26T13:01:48.362Z,3.08
2022-08-26T13:04:33.736Z,2.67
2022-08-26T13:07:22.563Z,2.58
2022-08-26T13:09:51.716Z,2.63
2022-08-26T13:12:32.283Z,3.00
2022-08-26T13:15:01.117Z,2.97
2022-08-26T13:17:29.784Z,3.20
2022-08-26T13:20:03.220Z,3.10
2022-08-26T13:22:31.207Z,3.20
2022-08-26T13:24:58.453Z,3.40
2022-08-26T13:27:27.338Z,3.47
2022-08-26T13:29:55.461Z,3.50
2022-08-26T13:32:24.763Z,3.60
2022-08-26T13:34:56.317Z,3.38
2022-08-26T13:37:34.515Z,3.53
2022-08-26T13:40:05.591Z,3.10
2022-08-26T13:42:32.984Z,3.20
2022-08-26T13:45:02.357Z,3.30
2022-08-26T13:47:29.780Z,3.50
2022-08-26T13:49:56.982Z,3.35
2022-08-26T13:52:25.486Z,3.85
2022-08-26T13:55:02.016Z,3.40
2022-08-26T13:57:30.381Z,3.30
2022-08-26T13:59:59.384Z,3.13
2022-08-26T14:02:27.954Z,3.55
2022-08-26T14:04:55.866Z,3.58
2022-08-26T14:07:23.385Z,3.40
2022-08-26T14:09:50.664Z,3.50
2022-08-26T14:12:20.794Z,3.10
2022-08-26T14:14:48.193Z,3.40
2022-08-26T14:17:20.189Z,3.50
2022-08-26T14:19:49.476Z,3.25
2022-08-26T14:22:21.115Z,3.50
2022-08-26T14:24:49.204Z,3.20
2022-08-26T14:27:16.756Z,3.13
2022-08-26T14:29:44.024Z,2.85
2022-08-26T14:32:18.914Z,3.25
2022-08-26T14:34:49.067Z,3.10
2022-08-26T14:37:17.733Z,3.28
2022-08-26T14:39:45.963Z,2.95
2022-08-26T14:42:16.720Z,3.55
2022-08-26T14:44:46.086Z,3.00
2022-08-26T14:47:13.411Z,3.30
2022-08-26T14:49:40.686Z,3.78
2022-08-26T14:52:07.947Z,3.00
2022-08-26T14:54:35.148Z,3.00
2022-08-26T14:57:05.949Z,3.28
2022-08-26T14:59:37.133Z,4.10
2022-08-26T15:02:06.754Z,3.33
2022-08-26T15:04:34.545Z,3.33
2022-08-26T15:07:03.228Z,3.50
2022-08-26T15:09:33.217Z,3.53
2022-08-26T15:12:00.720Z,3.17
2022-08-26T15:14:32.682Z,3.40
2022-08-26T15:17:00.553Z,3.38
2022-08-26T15:19:28.138Z,3.38
2022-08-26T15:21:55.431Z,3.22
2022-08-26T15:24:25.330Z,3.80
2022-08-26T15:26:53.269Z,3.63
2022-08-26T15:29:21.248Z,3.30
2022-08-26T15:31:49.153Z,3.80
2022-08-26T15:34:17.242Z,3.65
2022-08-26T15:36:46.719Z,3.28
2022-08-26T15:39:16.166Z,3.30
2022-08-26T15:41:43.761Z,3.50
2022-08-26T15:44:12.136Z,3.40
2022-08-26T15:46:39.759Z,3.65
2022-08-26T15:49:07.580Z,3.55
2022-08-26T15:51:45.837Z,3.50
2022-08-26T15:54:16.518Z,3.42
2022-08-26T15:56:44.083Z,3.55
2022-08-26T15:59:12.035Z,3.70
2022-08-26T16:01:39.727Z,3.60
2022-08-26T16:04:07.376Z,3.38
2022-08-26T16:06:38.187Z,3.47
2022-08-26T16:09:07.540Z,3.70
2022-08-26T16:11:36.041Z,3.22
2022-08-26T16:14:04.612Z,3.40
2022-08-26T16:16:32.196Z,3.70
2022-08-26T16:19:01.275Z,3.90
2022-08-26T16:21:31.110Z,3.70
2022-08-26T16:23:58.905Z,3.70
2022-08-26T16:26:29.476Z,3.90
2022-08-26T16:28:56.795Z,3.90
2022-08-26T16:31:24.324Z,4.03
2022-08-26T16:33:51.752Z,3.80
2022-08-26T16:36:19.877Z,3.70
2022-08-26T16:38:53.163Z,3.80
2022-08-26T16:41:21.537Z,3.70
2022-08-26T16:43:49.428Z,3.88
2022-08-26T16:46:16.947Z,4.00
2022-08-26T16:48:45.488Z,4.05
2022-08-26T16:51:13.681Z,4.30
2022-08-26T16:53:40.886Z,4.20
2022-08-26T16:56:19.362Z,4.10
2022-08-26T16:58:48.282Z,4.28
2022-08-26T17:01:16.060Z,4.30
2022-08-26T17:03:43.380Z,4.43
2022-08-26T17:06:11.264Z,4.50
2022-08-26T17:08:39.859Z,4.20
2022-08-26T17:11:07.500Z,4.60
2022-08-26T17:13:36.179Z,3.83
2022-08-26T17:16:07.455Z,4.20
2022-08-26T17:18:35.206Z,4.45
2022-08-26T17:21:04.924Z,4.63
2022-08-26T17:23:32.454Z,4.38
2022-08-26T17:25:59.667Z,4.10
2022-08-26T17:28:26.983Z,4.88
2022-08-26T17:30:57.322Z,4.70
2022-08-26T17:33:25.467Z,4.60
2022-08-26T17:35:53.604Z,5.13
2022-08-26T17:38:21.665Z,5.13
2022-08-26T17:40:49.606Z,6.40
2022-08-26T17:43:17.805Z,5.57
2022-08-26T17:45:45.169Z,5.47
2022-08-26T17:48:13.050Z,5.10
2022-08-26T17:50:41.324Z,5.50
2022-08-26T17:53:12.574Z,5.47
2022-08-26T17:55:46.933Z,5.18
2022-08-26T17:58:15.263Z,5.60
2022-08-26T18:00:46.182Z,6.10
2022-08-26T18:03:13.827Z,6.20
2022-08-26T18:05:42.614Z,5.38
2022-08-26T18:08:10.224Z,5.78
2022-08-26T18:10:37.480Z,6.07
2022-08-26T18:13:04.754Z,6.10
2022-08-26T18:15:32.068Z,6.97
2022-08-26T18:17:59.854Z,6.80
2022-08-26T18:20:27.239Z,6.20
2022-08-26T18:22:54.519Z,5.90
2022-08-26T18:25:21.913Z,6.07
2022-08-26T18:27:49.350Z,6.93
2022-08-26T18:30:20.735Z,6.57
2022-08-26T18:32:49.126Z,6.03
2022-08-26T18:35:16.543Z,5.40
2022-08-26T18:37:44.545Z,5.53
2022-08-26T18:40:14.256Z,6.10
2022-08-26T18:42:41.880Z,6.10
2022-08-26T18:45:10.363Z,6.30
2022-08-26T18:47:43.909Z,5.60
2022-08-26T18:50:11.643Z,5.97
2022-08-26T18:52:39.271Z,7.75
2022-08-26T18:55:07.497Z,5.72
2022-08-26T18:57:34.755Z,6.40
2022-08-26T19:00:04.520Z,6.50
2022-08-26T19:02:32.716Z,6.30
2022-08-26T19:05:00.118Z,6.05
2022-08-26T19:07:27.354Z,6.47
2022-08-26T19:09:54.601Z,6.60
2022-08-26T19:12:22.416Z,6.45
2022-08-26T19:14:54.974Z,6.25
2022-08-26T19:17:22.582Z,6.90
2022-08-26T19:19:49.996Z,6.32
2022-08-26T19:22:17.238Z,6.63
2022-08-26T19:24:44.587Z,7.18
2022-08-26T19:27:14.899Z,7.00
2022-08-26T19:29:42.440Z,6.80
2022-08-26T19:32:09.727Z,7.50
2022-08-26T19:34:37.080Z,7.15
2022-08-26T19:37:04.729Z,6.95
2022-08-26T19:39:31.992Z,7.63
2022-08-26T19:42:00.318Z,7.05
2022-08-26T19:44:46.042Z,7.32
2022-08-26T19:47:13.383Z,6.78
2022-08-26T19:49:40.878Z,6.50
2022-08-26T19:52:08.414Z,8.15
2022-08-26T19:54:36.206Z,8.80
2022-08-26T19:57:03.791Z,7.78
2022-08-26T19:59:33.023Z,7.20
2022-08-26T20:02:00.715Z,7.70
2022-08-26T20:04:30.973Z,7.63
2022-08-26T20:07:00.508Z,9.55
2022-08-26T20:09:32.734Z,8.90
2022-08-26T20:12:00.738Z,9.68
2022-08-26T20:14:29.841Z,10.05
2022-08-26T20:16:57.744Z,8.82
2022-08-26T20:19:44.136Z,8.50
2022-08-26T20:22:12.409Z,8.88
2022-08-26T20:24:39.699Z,8.93
2022-08-26T20:27:08.078Z,8.48
2022-08-26T20:29:36.833Z,9.43
2022-08-26T20:32:06.532Z,9.50
2022-08-26T20:34:35.054Z,11.70
2022-08-26T20:37:03.089Z,9.13
2022-08-26T20:39:30.369Z,8.27
2022-08-26T20:41:58.285Z,9.15
2022-08-26T20:44:25.785Z,9.25
2022-08-26T20:46:53.402Z,9.27
2022-08-26T20:49:21.043Z,8.85
2022-08-26T20:51:51.425Z,9.48
2022-08-26T20:54:23.924Z,9.10
2022-08-26T20:56:54.729Z,8.70
2022-08-26T20:59:22.001Z,9.10
